Time;durP1;ratioP1;P1;durP2;ratioP2;P2;SDS_P1;SDS_P2;PMS_P1;PMS_P2;Temp;Humidity;BMP_temperature;BMP_pressure;BME280_temperature;BME280_humidity;BME280_pressure;Samples;Min_cycle;Max_cycle;Signal;HPM_P1;HPM_P2
2021/04/18 00:01:39;;;;;;;18.90;12.23;;;4.50;91.10;;;;;;6264085;22;20015;-35
2021/04/18 00:04:06;;;;;;;23.92;11.80;;;4.50;90.90;;;;;;6278149;22;20373;-35
2021/04/18 00:06:36;;;;;;;22.05;12.23;;;4.50;90.80;;;;;;6267578;22;20016;-35
2021/04/18 00:09:12;;;;;;;23.92;13.90;;;4.40;90.90;;;;;;6268036;22;20095;-35
2021/04/18 00:11:40;;;;;;;21.13;11.57;;;4.40;91.50;;;;;;6266920;22;20488;-35
2021/04/18 00:14:09;;;;;;;24.67;13.65;;;4.40;91.00;;;;;;6269017;22;20020;-35
2021/04/18 00:16:36;;;;;;;17.98;12.63;;;4.30;90.80;;;;;;6268033;22;20099;-35
2021/04/18 00:19:06;;;;;;;18.88;13.10;;;4.40;91.30;;;;;;6267960;22;20123;-35
2021/04/18 00:21:32;;;;;;;23.67;13.75;;;4.40;91.70;;;;;;6267514;22;20018;-35
2021/04/18 00:23:59;;;;;;;27.15;15.68;;;4.40;91.50;;;;;;6268383;22;20019;-35
2021/04/18 00:26:25;;;;;;;20.10;13.57;;;4.30;91.40;;;;;;6269686;22;20372;-35
2021/04/18 00:28:52;;;;;;;24.40;15.40;;;4.40;92.10;;;;;;6268018;22;20015;-35
2021/04/18 00:31:19;;;;;;;22.50;14.98;;;4.40;92.00;;;;;;6267653;22;20049;-35
2021/04/18 00:33:48;;;;;;;25.63;15.82;;;4.40;91.80;;;;;;6268306;22;20586;-35
2021/04/18 00:36:17;;;;;;;22.63;14.80;;;4.40;91.60;;;;;;6268032;22;20102;-36
2021/04/18 00:38:45;;;;;;;23.55;14.98;;;4.30;91.60;;;;;;6252226;22;20026;-35
2021/04/18 00:41:11;;;;;;;22.02;13.80;;;4.30;92.00;;;;;;6250194;22;20540;-35
2021/04/18 00:43:45;;;;;;;26.00;15.02;;;4.30;91.70;;;;;;6268140;22;20523;-35
2021/04/18 00:46:15;;;;;;;24.45;15.80;;;4.30;91.90;;;;;;6267868;22;20023;-35
2021/04/18 00:48:45;;;;;;;31.75;15.18;;;4.30;91.90;;;;;;6267231;22;20514;-35
2021/04/18 00:51:17;;;;;;;26.65;14.43;;;4.30;91.80;;;;;;6268045;22;20016;-36
2021/04/18 00:53:46;;;;;;;19.20;13.57;;;4.30;91.90;;;;;;6252355;22;20024;-35
2021/04/18 00:56:15;;;;;;;24.20;14.52;;;4.30;92.30;;;;;;6267797;22;20023;-35
2021/04/18 00:58:49;;;;;;;17.88;12.10;;;4.20;92.00;;;;;;6267323;22;20510;-35
2021/04/18 01:01:20;;;;;;;23.95;14.57;;;4.10;92.00;;;;;;6264116;22;20023;-35
2021/04/18 01:03:47;;;;;;;27.58;15.55;;;4.10;91.80;;;;;;6241336;22;20027;-36
2021/04/18 01:06:18;;;;;;;18.60;13.55;;;4.10;92.50;;;;;;6269640;22;20022;-36
2021/04/18 01:08:49;;;;;;;22.30;14.88;;;4.10;91.90;;;;;;6242909;22;20026;-35
2021/04/18 01:11:19;;;;;;;27.77;15.15;;;4.10;92.10;;;;;;6252743;22;20337;-36
2021/04/18 01:13:53;;;;;;;24.17;14.18;;;4.10;92.10;;;;;;6244225;22;20121;-35
2021/04/18 01:16:23;;;;;;;24.90;15.82;;;4.10;92.30;;;;;;6270488;22;20021;-35
2021/04/18 01:18:52;;;;;;;20.35;13.98;;;4.00;92.40;;;;;;6271592;22;20026;-36
2021/04/18 01:21:22;;;;;;;24.85;12.55;;;4.00;92.30;;;;;;6270219;22;20023;-35
2021/04/18 01:24:18;;;;;;;20.10;12.70;;;3.90;92.00;;;;;;6270745;22;20020;-35
2021/04/18 01:27:04;;;;;;;18.35;12.70;;;3.70;92.30;;;;;;6270277;22;20086;-35
2021/04/18 01:29:32;;;;;;;18.33;13.35;;;3.70;92.20;;;;;;6269642;22;20821;-36
2021/04/18 01:31:59;;;;;;;22.48;15.15;;;3.70;92.20;;;;;;6269822;22;20095;-36
2021/04/18 01:34:29;;;;;;;20.88;13.13;;;3.80;92.20;;;;;;6270464;22;20019;-36
2021/04/18 01:36:56;;;;;;;24.95;14.05;;;3.70;92.20;;;;;;6244216;22;20050;-36
2021/04/18 01:39:27;;;;;;;22.02;14.63;;;3.70;92.40;;;;;;6270260;22;20012;-36
2021/04/18 01:41:56;;;;;;;22.13;14.70;;;3.70;92.70;;;;;;6269325;22;20686;-36
2021/04/18 01:44:24;;;;;;;26.40;14.35;;;3.60;92.70;;;;;;6280418;22;20015;-37
2021/04/18 01:46:54;;;;;;;20.42;14.00;;;3.60;92.50;;;;;;6242756;22;20466;-36
2021/04/18 01:49:26;;;;;;;25.83;14.80;;;3.60;92.70;;;;;;6243992;22;20046;-35
2021/04/18 01:51:56;;;;;;;21.40;14.23;;;3.50;93.10;;;;;;6242441;22;20333;-36
2021/04/18 01:54:30;;;;;;;22.20;13.98;;;3.60;93.30;;;;;;6242413;22;20046;-35
2021/04/18 01:56:59;;;;;;;20.08;13.45;;;3.50;93.10;;;;;;6242054;22;20035;-35
2021/04/18 01:59:30;;;;;;;23.75;14.65;;;3.50;93.00;;;;;;6242454;22;20040;-36
2021/04/18 02:02:17;;;;;;;19.45;13.30;;;3.50;92.70;;;;;;6236073;23;20450;-35
2021/04/18 02:04:56;;;;;;;22.88;14.43;;;3.50;92.50;;;;;;6238344;23;20019;-35
2021/04/18 02:07:27;;;;;;;25.80;15.05;;;3.50;92.60;;;;;;6239732;22;20727;-35
2021/04/18 02:09:57;;;;;;;23.85;14.82;;;3.50;92.70;;;;;;6247209;23;20058;-36
2021/04/18 02:12:29;;;;;;;22.92;15.15;;;3.50;92.60;;;;;;6236665;23;20103;-35
2021/04/18 02:15:00;;;;;;;22.83;15.20;;;3.40;93.10;;;;;;6248968;23;20326;-35
2021/04/18 02:17:32;;;;;;;24.17;15.60;;;3.50;93.20;;;;;;6236928;23;20020;-35
2021/04/18 02:20:04;;;;;;;18.75;14.38;;;3.50;93.30;;;;;;6240088;22;20120;-35
2021/04/18 02:22:30;;;;;;;28.67;15.07;;;3.40;93.10;;;;;;6236287;23;20024;-35
2021/04/18 02:25:02;;;;;;;23.35;14.93;;;3.40;92.80;;;;;;6238441;23;20622;-35
2021/04/18 02:27:35;;;;;;;26.05;16.08;;;3.40;92.70;;;;;;6237294;23;20409;-35
2021/04/18 02:30:14;;;;;;;26.02;16.55;;;3.40;93.30;;;;;;6236786;23;20073;-35
2021/04/18 02:32:46;;;;;;;20.17;15.63;;;3.40;93.60;;;;;;6246161;23;20039;-36
2021/04/18 02:35:15;;;;;;;35.42;17.15;;;3.40;94.00;;;;;;6237828;23;20095;-35
2021/04/18 02:37:42;;;;;;;157.65;25.08;;;3.40;94.00;;;;;;6248654;22;20047;-36
2021/04/18 02:40:09;;;;;;;110.68;22.23;;;3.40;94.30;;;;;;6238738;22;20024;-35
2021/04/18 02:42:43;;;;;;;80.90;22.27;;;3.30;94.70;;;;;;6237872;22;20046;-35
2021/04/18 02:45:15;;;;;;;32.42;17.88;;;3.30;94.40;;;;;;6237103;23;20023;-35
2021/04/18 02:47:50;;;;;;;36.92;17.55;;;3.30;94.20;;;;;;6238011;23;20078;-37
2021/04/18 02:50:19;;;;;;;24.50;17.27;;;3.20;94.20;;;;;;6238069;23;20099;-36
2021/04/18 02:52:53;;;;;;;24.20;17.05;;;3.30;94.20;;;;;;6237522;22;20027;-37
2021/04/18 02:55:22;;;;;;;22.73;16.15;;;3.30;94.20;;;;;;6238423;22;20460;-36
2021/04/18 02:58:15;;;;;;;20.42;15.43;;;3.20;94.20;;;;;;6238086;22;20419;-36
2021/04/18 03:00:45;;;;;;;18.70;14.98;;;3.30;94.40;;;;;;6236965;22;20023;-36
2021/04/18 03:03:14;;;;;;;16.17;13.88;;;3.20;94.00;;;;;;6267434;22;20030;-37
2021/04/18 03:05:46;;;;;;;;;;;3.30;94.20;;;;;;6242840;22;20026;-36
2021/04/18 03:08:17;;;;;;;18.27;15.27;;;3.30;94.50;;;;;;6243389;22;19919;-36
2021/04/18 03:10:44;;;;;;;18.02;15.43;;;3.20;94.10;;;;;;6245367;22;20019;-36
2021/04/18 03:13:19;;;;;;;20.65;15.95;;;3.20;93.80;;;;;;6240879;22;20028;-36
2021/04/18 03:15:52;;;;;;;18.45;14.30;;;3.30;93.90;;;;;;6216702;22;20122;-36
2021/04/18 03:18:19;;;;;;;17.35;13.50;;;3.20;94.00;;;;;;6269677;22;20093;-36
2021/04/18 03:20:52;;;;;;;16.42;14.10;;;3.20;93.90;;;;;;6241299;22;20101;-36
2021/04/18 03:23:25;;;;;;;16.98;13.70;;;3.20;94.00;;;;;;6240652;22;20452;-36
2021/04/18 03:25:57;;;;;;;16.63;14.82;;;3.10;93.70;;;;;;6241513;22;20665;-36
2021/04/18 03:28:23;;;;;;;19.77;15.10;;;3.10;93.70;;;;;;6268324;22;20385;-36
2021/04/18 03:30:55;;;;;;;16.08;13.93;;;3.10;93.80;;;;;;6267764;22;20460;-37
2021/04/18 03:33:25;;;;;;;;;;;3.10;93.80;;;;;;6242143;22;20046;-36
2021/04/18 03:36:05;;;;;;;16.83;13.07;;;3.00;94.00;;;;;;6242606;22;20320;-36
2021/04/18 03:38:40;;;;;;;14.43;12.88;;;3.00;93.70;;;;;;6268400;22;20019;-36
2021/04/18 03:41:09;;;;;;;16.20;13.40;;;3.00;93.90;;;;;;6268594;22;20019;-36
2021/04/18 03:43:40;;;;;;;15.13;12.43;;;3.00;94.00;;;;;;6267558;22;20134;-37
2021/04/18 03:46:11;;;;;;;15.10;12.57;;;2.90;93.60;;;;;;6242004;22;20046;-37
2021/04/18 03:48:52;;;;;;;14.70;12.38;;;2.80;93.50;;;;;;6269908;22;20023;-36
2021/04/18 03:51:22;;;;;;;14.25;11.95;;;2.80;93.60;;;;;;6269055;22;20182;-36
2021/04/18 03:53:59;;;;;;;13.02;11.65;;;2.70;93.80;;;;;;6240595;22;20055;-36
2021/04/18 03:56:30;;;;;;;13.00;11.68;;;2.70;93.90;;;;;;6268756;22;20019;-36
2021/04/18 03:59:03;;;;;;;12.95;11.55;;;2.60;93.90;;;;;;6241294;22;20043;-36
2021/04/18 04:01:32;;;;;;;15.10;11.90;;;2.60;93.80;;;;;;6211934;23;20051;-37
2021/04/18 04:04:05;;;;;;;12.80;11.50;;;2.60;93.60;;;;;;6238327;22;20020;-36
2021/04/18 04:06:39;;;;;;;12.27;11.07;;;2.50;93.30;;;;;;6236699;23;20023;-36
2021/04/18 04:09:08;;;;;;;12.75;10.65;;;2.50;93.60;;;;;;6238332;22;20327;-36
2021/04/18 04:11:42;;;;;;;11.93;10.73;;;2.50;93.40;;;;;;6246525;23;20020;-36
2021/04/18 04:14:18;;;;;;;11.35;10.25;;;2.30;93.00;;;;;;6245876;23;20129;-36
2021/04/18 04:16:49;;;;;;;11.38;10.27;;;2.30;92.90;;;;;;6236256;23;20019;-36
2021/04/18 04:19:20;;;;;;;11.95;10.73;;;2.20;93.00;;;;;;6247298;23;20023;-37
2021/04/18 04:22:02;;;;;;;11.50;10.18;;;2.30;93.10;;;;;;6237731;23;20016;-36
2021/04/18 04:24:51;;;;;;;15.77;12.60;;;2.20;93.10;;;;;;6234931;23;20016;-36
2021/04/18 04:27:21;;;;;;;18.92;14.57;;;2.30;93.50;;;;;;6237535;22;20024;-36
2021/04/18 04:29:52;;;;;;;18.63;14.77;;;2.30;93.60;;;;;;6237369;22;20024;-36
2021/04/18 04:32:26;;;;;;;53.97;19.20;;;2.30;93.90;;;;;;6237903;22;20412;-37
2021/04/18 04:34:55;;;;;;;51.35;18.92;;;2.40;94.10;;;;;;6237714;22;20099;-37
2021/04/18 04:37:22;;;;;;;39.47;19.98;;;2.40;94.40;;;;;;6237551;22;20099;-36
2021/04/18 04:39:51;;;;;;;36.42;20.25;;;2.40;94.20;;;;;;6237864;22;20020;-36
2021/04/18 04:42:20;;;;;;;42.10;17.67;;;2.50;94.80;;;;;;6237881;23;20116;-37
2021/04/18 04:44:49;;;;;;;42.90;16.48;;;2.50;95.20;;;;;;6236986;22;20039;-36
2021/04/18 04:47:17;;;;;;;17.98;12.85;;;2.40;95.10;;;;;;6238547;22;20024;-36
2021/04/18 04:49:44;;;;;;;19.65;13.90;;;2.30;95.00;;;;;;6248078;22;20546;-36
2021/04/18 04:52:16;;;;;;;20.25;13.32;;;2.40;94.90;;;;;;6237213;23;20035;-37
2021/04/18 04:54:43;;;;;;;26.13;13.82;;;2.30;94.80;;;;;;6246787;22;20444;-36
2021/04/18 04:57:12;;;;;;;19.83;12.57;;;2.20;94.60;;;;;;6237656;22;20031;-36
2021/04/18 04:59:41;;;;;;;30.25;14.65;;;2.20;94.60;;;;;;6237594;22;20163;-36
2021/04/18 05:02:09;;;;;;;18.92;14.95;;;2.20;94.80;;;;;;6259577;22;20070;-36
2021/04/18 05:04:35;;;;;;;20.27;13.90;;;2.30;94.60;;;;;;6266401;22;20022;-36
2021/04/18 05:07:04;;;;;;;19.00;14.82;;;2.40;94.50;;;;;;6267236;22;20019;-36
2021/04/18 05:09:32;;;;;;;23.33;17.08;;;2.60;94.60;;;;;;6267352;22;20027;-37
2021/04/18 05:12:03;;;;;;;20.17;16.50;;;2.70;95.10;;;;;;6267937;22;20090;-37
2021/04/18 05:14:32;;;;;;;17.55;14.20;;;2.80;95.50;;;;;;6267386;22;20774;-36
2021/04/18 05:17:02;;;;;;;19.15;15.27;;;2.90;95.40;;;;;;6267662;22;20246;-36
2021/04/18 05:19:29;;;;;;;24.65;17.33;;;2.90;95.00;;;;;;6267749;22;20023;-37
2021/04/18 05:21:58;;;;;;;31.20;18.77;;;2.90;94.90;;;;;;6277811;22;20020;-37
2021/04/18 05:24:24;;;;;;;31.83;18.83;;;3.10;95.20;;;;;;6276843;22;20098;-37
2021/04/18 05:26:50;;;;;;;23.92;17.23;;;3.10;95.30;;;;;;6241674;22;20570;-38
2021/04/18 05:29:19;;;;;;;26.83;17.00;;;3.10;95.40;;;;;;6267780;22;20054;-37
2021/04/18 05:31:46;;;;;;;24.35;17.20;;;3.10;95.40;;;;;;6267741;22;20016;-37
2021/04/18 05:34:18;;;;;;;18.88;15.68;;;3.10;95.40;;;;;;6267092;22;20020;-39
2021/04/18 05:36:44;;;;;;;;;;;3.20;95.50;;;;;;6269386;22;20016;-37
2021/04/18 05:39:15;;;;;;;18.35;15.02;;;3.20;95.50;;;;;;6269751;22;19919;-37
2021/04/18 05:41:47;;;;;;;21.33;16.30;;;3.20;95.40;;;;;;6267805;22;20019;-39
2021/04/18 05:44:20;;;;;;;17.30;15.38;;;3.30;95.50;;;;;;6192035;22;20472;-36
2021/04/18 05:46:49;;;;;;;18.05;15.02;;;3.40;95.40;;;;;;6266287;22;20522;-36
2021/04/18 05:49:15;;;;;;;17.02;14.82;;;3.50;95.40;;;;;;6269200;22;20016;-36
2021/04/18 05:51:48;;;;;;;16.42;14.68;;;3.60;95.30;;;;;;6268388;22;20016;-36
2021/04/18 05:54:16;;;;;;;15.25;13.68;;;3.70;95.20;;;;;;6269629;22;20019;-37
2021/04/18 05:56:42;;;;;;;13.95;12.55;;;3.80;95.00;;;;;;6268582;22;20500;-36
2021/04/18 05:59:11;;;;;;;15.38;13.88;;;3.80;94.80;;;;;;6269325;22;20020;-37
2021/04/18 06:01:40;;;;;;;15.27;13.65;;;3.90;94.70;;;;;;6270357;22;20071;-37
2021/04/18 06:04:09;;;;;;;15.90;14.30;;;4.00;94.70;;;;;;6269198;22;20543;-37
2021/04/18 06:06:35;;;;;;;14.30;12.80;;;4.00;94.70;;;;;;6268593;22;20030;-36
2021/04/18 06:09:02;;;;;;;13.50;12.20;;;4.10;94.60;;;;;;6279315;22;20030;-36
2021/04/18 06:11:29;;;;;;;23.50;20.60;;;4.20;94.60;;;;;;6269950;22;20392;-36
2021/04/18 06:13:57;;;;;;;15.65;14.05;;;4.20;94.50;;;;;;6281127;22;20077;-36
2021/04/18 06:16:24;;;;;;;17.85;16.05;;;4.40;94.60;;;;;;6269234;22;20023;-36
2021/04/18 06:18:50;;;;;;;21.67;15.98;;;4.50;94.50;;;;;;6269397;22;20453;-35
2021/04/18 06:21:17;;;;;;;31.73;25.83;;;4.60;94.40;;;;;;6269585;22;20330;-36
2021/04/18 06:23:43;;;;;;;14.80;13.40;;;4.70;94.40;;;;;;6269431;22;20023;-36
2021/04/18 06:26:10;;;;;;;14.45;12.98;;;4.80;94.20;;;;;;6269810;22;20016;-35
2021/04/18 06:28:36;;;;;;;14.77;13.38;;;4.90;94.30;;;;;;6269830;22;20761;-35
2021/04/18 06:31:05;;;;;;;17.65;14.05;;;5.00;94.30;;;;;;6279835;22;20020;-36
2021/04/18 06:33:34;;;;;;;23.42;21.00;;;5.20;94.00;;;;;;6270147;22;20038;-36
2021/04/18 06:36:02;;;;;;;18.13;13.60;;;5.20;93.80;;;;;;6279347;22;20034;-37
2021/04/18 06:38:29;;;;;;;15.10;12.93;;;5.30;93.90;;;;;;6280012;22;20031;-36
2021/04/18 06:41:01;;;;;;;14.93;13.35;;;5.40;93.80;;;;;;6269395;22;20026;-36
2021/04/18 06:43:31;;;;;;;18.63;15.80;;;5.60;93.60;;;;;;6269336;22;20015;-37
2021/04/18 06:45:57;;;;;;;14.80;12.52;;;5.60;93.40;;;;;;6279350;22;20495;-37
2021/04/18 06:48:23;;;;;;;14.35;12.85;;;5.80;93.40;;;;;;6279987;22;20020;-37
2021/04/18 06:50:52;;;;;;;13.75;12.43;;;5.90;93.20;;;;;;6253413;22;20659;-36
2021/04/18 06:53:28;;;;;;;13.50;12.13;;;6.00;93.20;;;;;;6270378;22;20047;-36
2021/04/18 06:56:01;;;;;;;15.90;12.95;;;6.10;93.00;;;;;;6278751;22;20591;-36
2021/04/18 06:58:27;;;;;;;13.23;11.85;;;6.30;92.80;;;;;;6278545;22;20356;-37
2021/04/18 07:00:53;;;;;;;14.55;13.05;;;6.30;92.70;;;;;;6269175;22;20019;-37
2021/04/18 07:03:23;;;;;;;18.90;15.45;;;6.40;92.60;;;;;;6269184;22;20015;-37
2021/04/18 07:05:56;;;;;;;16.48;14.75;;;6.50;92.50;;;;;;6269566;22;20051;-36
2021/04/18 07:08:28;;;;;;;17.17;14.02;;;6.60;92.60;;;;;;6269279;22;20015;-36
2021/04/18 07:11:19;;;;;;;17.92;14.25;;;6.80;92.50;;;;;;6269264;22;20047;-36
2021/04/18 07:13:51;;;;;;;17.13;14.40;;;7.10;92.40;;;;;;6269482;22;20019;-37
2021/04/18 07:16:28;;;;;;;19.92;14.40;;;7.80;92.20;;;;;;6268975;22;20209;-37
2021/04/18 07:18:57;;;;;;;25.33;21.55;;;8.80;91.40;;;;;;6269423;22;20020;-37
2021/04/18 07:21:24;;;;;;;13.38;11.27;;;9.60;90.00;;;;;;6279970;22;20428;-36
2021/04/18 07:24:04;;;;;;;24.65;19.55;;;10.40;86.70;;;;;;6268839;22;20026;-37
2021/04/18 07:26:33;;;;;;;15.02;12.38;;;11.00;83.20;;;;;;6278510;22;20027;-37
2021/04/18 07:29:35;;;;;;;17.65;13.23;;;11.30;82.70;;;;;;6278130;22;20023;-37
2021/04/18 07:32:18;;;;;;;13.27;11.57;;;11.60;75.50;;;;;;6153697;23;20076;-38
2021/04/18 07:34:45;;;;;;;18.60;15.15;;;11.80;78.20;;;;;;6143819;23;20125;-37
2021/04/18 07:37:19;;;;;;;16.10;14.18;;;12.10;80.80;;;;;;6152057;23;20087;-37
2021/04/18 07:39:56;;;;;;;16.63;13.45;;;12.10;78.80;;;;;;6145270;23;20264;-37
2021/04/18 07:42:37;;;;;;;11.90;9.73;;;12.40;78.50;;;;;;6144890;23;20362;-37
2021/04/18 07:45:14;;;;;;;13.98;12.35;;;12.80;74.20;;;;;;6142941;23;20022;-37
2021/04/18 07:47:44;;;;;;;50.80;41.47;;;12.90;76.30;;;;;;6143328;23;20945;-37
2021/04/18 07:50:17;;;;;;;13.23;9.95;;;12.70;74.90;;;;;;6143678;23;20032;-38
2021/04/18 07:52:48;;;;;;;13.23;10.52;;;12.50;76.30;;;;;;6143362;23;20021;-37
2021/04/18 07:55:18;;;;;;;22.27;18.25;;;12.40;75.70;;;;;;6144515;23;20028;-37
2021/04/18 07:57:44;;;;;;;33.55;28.08;;;12.70;75.10;;;;;;6143229;23;20489;-37
2021/04/18 08:00:14;;;;;;;21.55;18.15;;;13.00;74.00;;;;;;6143979;23;20021;-37
2021/04/18 08:02:48;;;;;;;58.10;50.15;;;13.60;71.70;;;;;;6124235;23;20506;-38
2021/04/18 08:05:18;;;;;;;14.38;10.45;;;14.30;70.20;;;;;;6136522;23;20349;-38
2021/04/18 08:07:57;;;;;;;20.90;16.77;;;14.60;65.00;;;;;;6236519;23;20354;-38
2021/04/18 08:10:38;;;;;;;11.15;7.53;;;14.80;65.00;;;;;;6238845;23;20408;-37
2021/04/18 08:13:08;;;;;;;10.75;9.52;;;14.90;63.70;;;;;;6237894;23;20020;-38
2021/04/18 08:15:57;;;;;;;16.65;9.73;;;15.40;64.90;;;;;;6247421;23;20024;-37
2021/04/18 08:18:33;;;;;;;24.77;20.73;;;15.50;62.10;;;;;;6247617;23;20078;-38
2021/04/18 08:21:06;;;;;;;21.05;15.38;;;16.10;59.90;;;;;;6238202;23;20020;-38
2021/04/18 08:23:38;;;;;;;13.60;8.77;;;16.40;62.20;;;;;;6212813;23;20340;-39
2021/04/18 08:26:04;;;;;;;25.90;21.85;;;16.60;58.00;;;;;;6238662;23;20020;-39
2021/04/18 08:28:52;;;;;;;13.68;10.98;;;16.60;59.20;;;;;;6238013;23;20020;-39
2021/04/18 08:31:30;;;;;;;11.02;9.57;;;16.90;53.50;;;;;;6237177;23;20020;-39
2021/04/18 08:34:03;;;;;;;23.52;20.75;;;17.10;52.10;;;;;;6237838;23;20020;-39
2021/04/18 08:36:34;;;;;;;25.88;20.02;;;17.30;52.80;;;;;;6248480;23;20016;-39
2021/04/18 08:39:00;;;;;;;27.75;24.83;;;17.20;53.30;;;;;;6237308;23;20096;-40
2021/04/18 08:41:54;;;;;;;36.60;32.40;;;17.60;54.30;;;;;;6237764;23;20020;-39
2021/04/18 08:44:36;;;;;;;38.50;34.25;;;16.80;49.20;;;;;;6238806;23;20020;-38
2021/04/18 08:47:06;;;;;;;32.50;29.00;;;16.40;53.00;;;;;;6248802;23;20020;-39
2021/04/18 08:49:37;;;;;;;22.98;18.60;;;16.00;54.40;;;;;;6210616;23;20016;-39
2021/04/18 08:52:16;;;;;;;17.67;12.88;;;15.70;54.20;;;;;;6236710;23;20341;-38
2021/04/18 08:54:45;;;;;;;14.77;11.60;;;15.60;53.20;;;;;;6237511;23;20016;-40
2021/04/18 08:57:20;;;;;;;21.23;17.30;;;15.30;53.20;;;;;;6247565;23;20024;-38
2021/04/18 08:59:51;;;;;;;34.75;29.33;;;15.40;54.90;;;;;;6211077;23;20024;-37
2021/04/18 09:02:17;;;;;;;39.92;33.78;;;15.40;54.40;;;;;;6238722;22;20028;-39
2021/04/18 09:04:56;;;;;;;42.05;35.72;;;15.50;55.00;;;;;;6241874;22;20115;-39
2021/04/18 09:07:29;;;;;;;37.00;32.53;;;15.70;54.90;;;;;;6268134;22;20102;-40
2021/04/18 09:10:04;;;;;;;32.28;25.85;;;15.40;53.00;;;;;;6268338;22;20103;-39
2021/04/18 09:12:33;;;;;;;18.67;15.38;;;15.30;55.20;;;;;;6268414;22;20070;-39
2021/04/18 09:15:04;;;;;;;16.77;13.60;;;15.20;55.90;;;;;;6269589;22;20043;-39
2021/04/18 09:17:32;;;;;;;26.73;21.60;;;15.00;56.50;;;;;;6268344;22;20102;-39
2021/04/18 09:20:17;;;;;;;16.05;12.13;;;14.90;57.40;;;;;;6268145;22;20521;-39
2021/04/18 09:22:48;;;;;;;17.70;15.02;;;14.90;57.20;;;;;;6278559;22;20024;-39
2021/04/18 09:25:18;;;;;;;16.27;12.93;;;14.80;57.80;;;;;;6268467;22;20094;-39
2021/04/18 09:27:52;;;;;;;13.90;9.50;;;14.90;57.50;;;;;;6269454;22;20038;-38
2021/04/18 09:30:24;;;;;;;9.43;7.53;;;15.00;58.40;;;;;;6271559;22;20102;-39
2021/04/18 09:32:54;;;;;;;9.82;7.82;;;15.10;58.70;;;;;;6243870;22;20012;-39
2021/04/18 09:35:26;;;;;;;13.05;10.23;;;15.40;58.00;;;;;;6271032;22;20015;-39
2021/04/18 09:37:57;;;;;;;12.75;7.20;;;15.60;57.30;;;;;;6270462;22;20021;-39
2021/04/18 09:40:26;;;;;;;10.65;7.57;;;15.80;56.60;;;;;;6270690;22;20023;-39
2021/04/18 09:42:54;;;;;;;11.32;7.22;;;16.10;56.10;;;;;;6270604;22;20016;-39
2021/04/18 09:45:26;;;;;;;11.38;7.43;;;16.30;56.70;;;;;;6281547;22;20065;-39
2021/04/18 09:48:15;;;;;;;13.23;10.23;;;16.10;56.00;;;;;;6270150;22;20016;-39
2021/04/18 09:51:01;;;;;;;17.90;13.38;;;16.20;55.80;;;;;;6270614;22;20020;-38
2021/04/18 09:53:29;;;;;;;12.88;8.95;;;16.10;53.80;;;;;;6270290;22;20015;-39
2021/04/18 09:56:00;;;;;;;22.52;17.70;;;16.10;55.30;;;;;;6270093;22;20020;-39
2021/04/18 09:58:37;;;;;;;19.80;16.43;;;16.50;54.70;;;;;;6269743;22;20103;-39
2021/04/18 10:01:20;;;;;;;25.70;19.38;;;17.40;53.00;;;;;;6281202;22;20019;-39
2021/04/18 10:03:47;;;;;;;12.57;7.82;;;18.40;52.50;;;;;;6270535;22;20034;-39
2021/04/18 10:06:15;;;;;;;19.05;15.65;;;19.40;50.40;;;;;;6279902;22;20076;-40
2021/04/18 10:08:53;;;;;;;18.73;16.30;;;19.90;49.90;;;;;;6269173;22;20020;-40
2021/04/18 10:11:21;;;;;;;10.40;7.20;;;20.10;47.40;;;;;;6243193;22;20019;-40
2021/04/18 10:13:53;;;;;;;17.17;13.07;;;20.30;47.10;;;;;;6270066;22;20016;-39
2021/04/18 10:16:28;;;;;;;12.70;9.57;;;20.20;46.60;;;;;;6270332;22;20020;-40
2021/04/18 10:19:18;;;;;;;9.85;6.72;;;20.50;46.70;;;;;;6269009;22;20525;-40
2021/04/18 10:22:07;;;;;;;9.25;6.93;;;20.30;41.50;;;;;;6279271;22;20400;-41
2021/04/18 10:24:42;;;;;;;7.90;6.38;;;20.70;42.50;;;;;;6249201;22;20166;-41
2021/04/18 10:27:19;;;;;;;7.95;6.10;;;20.60;45.40;;;;;;6269805;22;20019;-41
2021/04/18 10:29:49;;;;;;;11.02;9.05;;;20.90;43.60;;;;;;6268657;22;20074;-39
2021/04/18 10:32:19;;;;;;;7.15;4.90;;;21.30;41.40;;;;;;6269692;22;20047;-40
2021/04/18 10:34:54;;;;;;;13.50;10.93;;;21.30;40.60;;;;;;6270300;22;20023;-40
2021/04/18 10:37:23;;;;;;;15.13;11.65;;;21.80;39.40;;;;;;6270610;22;20023;-40
2021/04/18 10:39:50;;;;;;;33.58;29.67;;;21.50;38.10;;;;;;6268714;22;20016;-40
2021/04/18 10:42:25;;;;;;;12.63;8.18;;;21.60;39.00;;;;;;6243162;22;20020;-39
2021/04/18 10:44:53;;;;;;;9.35;6.05;;;21.80;38.00;;;;;;6270638;22;20073;-38
2021/04/18 10:47:46;;;;;;;10.07;8.80;;;21.40;37.40;;;;;;6269848;22;20043;-39
2021/04/18 10:50:23;;;;;;;7.18;4.80;;;22.10;36.80;;;;;;6242912;22;20070;-40
2021/04/18 10:52:54;;;;;;;13.65;11.30;;;21.80;36.50;;;;;;6270293;22;20345;-40
2021/04/18 10:55:56;;;;;;;7.70;5.65;;;21.60;36.50;;;;;;6269172;22;20027;-39
2021/04/18 10:59:11;;;;;;;7.68;4.63;;;21.90;36.50;;;;;;6256263;22;20078;-38
2021/04/18 11:01:46;;;;;;;11.98;5.35;;;21.90;36.90;;;;;;6252168;22;20015;-39
2021/04/18 11:04:38;;;;;;;9.60;7.35;;;21.90;35.70;;;;;;6235818;23;20103;-41
2021/04/18 11:07:04;;;;;;;7.93;5.20;;;22.50;36.50;;;;;;6238906;22;20020;-39
2021/04/18 11:09:33;;;;;;;13.55;6.70;;;23.10;36.30;;;;;;6248026;22;20039;-40
2021/04/18 11:12:01;;;;;;;10.55;8.43;;;22.70;36.20;;;;;;6238888;22;20091;-39
2021/04/18 11:14:30;;;;;;;9.30;6.68;;;22.20;35.80;;;;;;6249435;22;20531;-38
2021/04/18 11:16:56;;;;;;;10.23;7.32;;;21.20;35.70;;;;;;6238931;22;20532;-38
2021/04/18 11:19:26;;;;;;;9.35;6.20;;;21.40;36.80;;;;;;6248930;23;20515;-41
2021/04/18 11:21:55;;;;;;;15.05;11.32;;;21.90;36.70;;;;;;6238542;22;20318;-40
2021/04/18 11:24:21;;;;;;;42.05;37.88;;;21.90;36.30;;;;;;6238518;22;20142;-42
2021/04/18 11:26:47;;;;;;;28.55;25.70;;;22.20;36.60;;;;;;6238528;22;20020;-41
2021/04/18 11:29:19;;;;;;;25.77;23.13;;;22.30;37.10;;;;;;6238013;23;20323;-40
2021/04/18 11:31:48;;;;;;;23.80;20.58;;;22.20;36.10;;;;;;6237502;23;20027;-40
2021/04/18 11:34:15;;;;;;;28.58;25.52;;;21.80;36.50;;;;;;6247912;22;20020;-40
2021/04/18 11:36:41;;;;;;;9.35;6.60;;;21.80;36.10;;;;;;6238222;22;20457;-41
2021/04/18 11:39:08;;;;;;;12.13;6.93;;;21.80;35.30;;;;;;6239602;22;20016;-40
2021/04/18 11:41:35;;;;;;;11.40;9.43;;;22.30;34.70;;;;;;6237405;22;20016;-42
2021/04/18 11:44:15;;;;;;;9.80;8.80;;;22.70;34.50;;;;;;6238003;22;20449;-41
2021/04/18 11:46:44;;;;;;;6.28;4.53;;;23.10;35.20;;;;;;6238332;22;20095;-43
2021/04/18 11:49:11;;;;;;;9.13;4.70;;;23.00;34.40;;;;;;6237830;22;20016;-41
2021/04/18 11:51:38;;;;;;;10.07;7.32;;;23.10;34.10;;;;;;6245809;23;20043;-41
2021/04/18 11:54:06;;;;;;;8.00;4.93;;;23.30;33.80;;;;;;6237909;22;20020;-42
2021/04/18 11:56:32;;;;;;;9.27;5.50;;;23.70;34.60;;;;;;6238381;22;20019;-40
2021/04/18 11:58:59;;;;;;;6.88;5.22;;;23.40;34.60;;;;;;6248547;22;20039;-40
2021/04/18 12:01:28;;;;;;;7.88;4.80;;;22.60;35.10;;;;;;6237548;22;20027;-41
2021/04/18 12:03:55;;;;;;;9.30;5.40;;;21.80;35.60;;;;;;6256403;22;20091;-40
2021/04/18 12:06:21;;;;;;;9.13;4.82;;;21.20;36.50;;;;;;6268059;22;20016;-44
2021/04/18 12:08:47;;;;;;;6.03;4.18;;;21.40;37.10;;;;;;6278589;22;20011;-39
2021/04/18 12:11:13;;;;;;;26.08;22.95;;;21.40;36.60;;;;;;6278760;22;20436;-42
2021/04/18 12:13:46;;;;;;;20.48;16.95;;;21.30;36.50;;;;;;6278776;22;20023;-38
2021/04/18 12:16:15;;;;;;;31.88;28.55;;;21.10;36.30;;;;;;6243195;22;20012;-37
2021/04/18 12:18:44;;;;;;;23.43;20.00;;;20.80;36.70;;;;;;6269072;22;20069;-37
2021/04/18 12:21:10;;;;;;;32.58;28.83;;;20.60;36.90;;;;;;6267155;22;20266;-37
2021/04/18 12:23:37;;;;;;;18.30;15.07;;;21.40;37.20;;;;;;6268174;22;20024;-40
2021/04/18 12:26:04;;;;;;;11.02;8.48;;;22.30;36.00;;;;;;6278080;22;20016;-38
2021/04/18 12:28:31;;;;;;;16.42;14.60;;;22.90;36.20;;;;;;6268361;22;20026;-39
2021/04/18 12:31:08;;;;;;;9.00;6.28;;;23.30;35.10;;;;;;6267516;22;20023;-39
2021/04/18 12:33:38;;;;;;;14.93;10.77;;;23.70;34.00;;;;;;6277994;22;20020;-39
2021/04/18 12:36:15;;;;;;;64.55;58.13;;;22.80;34.00;;;;;;6252392;22;20019;-39
2021/04/18 12:38:59;;;;;;;13.32;11.18;;;23.30;35.00;;;;;;6242941;22;20020;-41
2021/04/18 12:41:32;;;;;;;20.15;17.95;;;23.80;34.50;;;;;;6267210;22;20047;-38
2021/04/18 12:44:31;;;;;;;13.87;9.97;;;24.10;34.60;;;;;;6267366;22;20094;-39
2021/04/18 12:47:00;;;;;;;15.75;11.27;;;24.30;32.90;;;;;;6277596;22;20706;-39
2021/04/18 12:49:26;;;;;;;13.68;10.65;;;24.40;33.60;;;;;;6268713;22;20456;-39
2021/04/18 12:51:53;;;;;;;11.73;7.80;;;24.80;32.70;;;;;;6267220;22;20607;-39
2021/04/18 12:54:19;;;;;;;11.25;6.90;;;24.40;32.90;;;;;;6277666;22;20081;-39
2021/04/18 12:56:50;;;;;;;5.97;4.97;;;24.10;32.70;;;;;;6268489;22;20042;-40
2021/04/18 12:59:16;;;;;;;9.75;6.75;;;24.50;33.30;;;;;;6268603;22;20020;-40